Aérodrome :
LOGIN :

S'inscrire | Disclaimer

   EN    FR    IT 

 










Légende :    VFR   VFR Marginal   IFR   IFR Intensif   IFR Très Intensif
Visi : 
Plafond : 
>= 8 km
>= 3000ft
5 à 8 km
1000 à 3000 ft
1500m à 5 km
500 à 1000 ft
800 à 1500m
200 à 500 ft
< 800m
< 200 ft
Symboles :   Orages  Brouillard  Fortes neiges  Fortes précipitations  Vent > 20 kt
SIGMETs :   Divers  Orages  Givrage  Turbulence  Onde Orograph.  Cendres Volcan.







- Altitude de l'aérodrome : 74 ft
- Code IATA : EIN


EHEH - Eindhoven

DERNIER METAR :
  • 170825Z AUTO 16009KT 130V220 9999 NCD 23/12 Q1020 BLU 16008KT CAVOK

METARs EXPIRÉS :
  • 170755Z AUTO 15008KT 110V220 9999 NCD 21/12 Q1020 BLU 16005KT CAVOK
  • 170725Z AUTO 15009KT 100V200 9999 NCD 21/13 Q1021 BLU 16005KT CAVOK
  • 170655Z AUTO 14007KT 090V210 9999 NCD 20/13 Q1021 BLU 16005KT CAVOK
  • 170625Z AUTO 14005KT 110V220 9999 NCD 19/13 Q1021 BLU 16005KT CAVOK
  • 170555Z AUTO 14004KT 100V210 9999 NCD 18/13 Q1020 BLU 16005KT CAVOK
  • 170525Z AUTO 14003KT 120V220 9999 NCD 16/14 Q1020 BLU 16005KT CAVOK

TAF TAF EHEH
Valide du 17 à 06h jusqu'au 18 à 12h UTC


170522Z 1706/1812 16005KT CAVOK
BECMG 1716/1719 VRB02KT
PROB30 1800/1804 3000 MIFG BR
Pas de NOTAMs connus pour ce terrain.



MET'MAP, la Météo Aéronautique d'un coup d'oeil ! - Copyright ORBIFLY Décembre 2007 - Disclaimer

ORBIFLY MET'MAP TEAM :

Programmation & Développement : Alexandra Zaïnal
Conception & Développement : Baudouin d'Aumeries
Co-Programmation & Développement : Marc-Olivier Méhu
Soutien technique & logistique : Manuel Goepfert

Contact : metmap@orbifly.com




SOURCES & CREDITS :

   NOAA